メインページ
METAR-TAF:

METAR-TAF

空港 :

シルビオ・ペッティロッシ国際空港

アスンシオン, パラグアイ

緯度: 25-16S, 経度: 057-38W, 海抜: 101m

現時点の気象観測

当レポートは25分前の21:00(UTC)に作成
西/南西の風 2kt
気温 25°C
湿度 54%
気圧 1020 hPa
視程: 9000m

METAR: SGAS 162100Z 24002KT 9000 NSC 25/15 Q1020

時間: 17:25 (21:25 UTC)

予報

当レポートは5時間5分前の16:20(UTC)に作成
予報は16日の 18時(UTC)から 17日の 18時(UTC)まで有効
変向風 3kt
視程: 8000m
16日の 19時(UTC)から 16日の 21時(UTC)まで徐々に
南/南東の風 6kt
視程10km以上
高度3300ftの雲は散在している
17日の 00時(UTC)から 17日の 04時(UTC)まで徐々に
視程10km以上
1,500メートル以下は雲なし、積乱雲なし
確率 30%
17日の 08時(UTC)から 17日の 10時(UTC)まで
変向風 4kt
視程: 7000m

TAF: SGAS 161620Z 1618/1718 VRB03KT 8000 NSC TX26/1619Z TN16/1709Z BECMG 1619/1621 15006KT 9999 SCT033 BECMG 1700/1704 CAVOK PROB30 1708/1710 VRB04KT 7000 NSC

4,000以上の空港の気象観測と天気予報(METAR報とTAF報)

利用可能な観測所は地図上に黄色い丸と赤い丸で示す。

丸の上にカーソルを重ねると観測所名を参照できる。

次にクリックすると気象観測と天気予報を参照できる。

マップの切り替え:黒色「×」印の緑ボタンをクリックして拡大、「-」印の緑ボタンをクリックして縮小、緑色の三角印をクリックして隣りの地図に切り替え


METAR-TAF: